Time;durP1;ratioP1;P1;durP2;ratioP2;P2;SDS_P1;SDS_P2;PMS_P1;PMS_P2;Temp;Humidity;BMP_temperature;BMP_pressure;BME280_temperature;BME280_humidity;BME280_pressure;Samples;Min_cycle;Max_cycle;Signal;HPM_P1;HPM_P2
2021/08/03 00:00:42;;;;;;;6.65;6.05;;;17.90;63.90;;;;;;1486359;40;20020;-58
2021/08/03 00:02:07;;;;;;;7.15;6.45;;;17.80;64.00;;;;;;1488357;39;20040;-58
2021/08/03 00:03:33;;;;;;;6.90;6.03;;;17.80;64.30;;;;;;1491847;39;20051;-59
2021/08/03 00:04:57;;;;;;;5.97;5.47;;;17.80;64.20;;;;;;1487250;39;20545;-58
2021/08/03 00:06:20;;;;;;;7.53;5.97;;;17.80;64.80;;;;;;1487518;40;20109;-59
2021/08/03 00:07:42;;;;;;;6.63;6.00;;;17.80;64.50;;;;;;1486787;40;20035;-59
2021/08/03 00:09:04;;;;;;;7.15;6.03;;;17.80;64.50;;;;;;1485612;40;20044;-59
2021/08/03 00:10:25;;;;;;;7.82;6.13;;;17.80;64.60;;;;;;1491417;39;20055;-59
2021/08/03 00:11:47;;;;;;;7.05;6.35;;;17.80;64.60;;;;;;1491247;39;20048;-59
2021/08/03 00:13:09;;;;;;;7.75;5.95;;;17.80;64.70;;;;;;1490848;39;20039;-58
2021/08/03 00:14:31;;;;;;;5.75;5.25;;;17.80;64.90;;;;;;1484753;40;20369;-59
2021/08/03 00:15:57;;;;;;;6.25;5.65;;;17.80;65.00;;;;;;1487557;40;20090;-59
2021/08/03 00:17:23;;;;;;;5.82;5.22;;;17.80;65.20;;;;;;1490695;39;20028;-59
2021/08/03 00:18:45;;;;;;;6.40;5.38;;;17.70;65.00;;;;;;1488945;39;20319;-59
2021/08/03 00:20:07;;;;;;;7.00;5.75;;;17.80;64.90;;;;;;1489674;39;20035;-59
2021/08/03 00:21:28;;;;;;;6.40;5.72;;;17.70;64.90;;;;;;1491094;39;20029;-59
2021/08/03 00:22:51;;;;;;;6.72;5.97;;;17.70;65.60;;;;;;1490326;39;20121;-59
2021/08/03 00:24:12;;;;;;;6.28;5.68;;;17.80;65.10;;;;;;1490496;39;20031;-58
2021/08/03 00:25:33;;;;;;;6.03;5.53;;;17.80;65.10;;;;;;1490465;39;20380;-59
2021/08/03 00:26:54;;;;;;;6.15;5.35;;;17.70;65.20;;;;;;1486428;39;20032;-59
2021/08/03 00:28:16;;;;;;;6.30;5.65;;;17.80;65.20;;;;;;1489358;39;20048;-59
2021/08/03 00:29:37;;;;;;;5.93;5.32;;;17.80;65.30;;;;;;1489978;39;20071;-59
2021/08/03 00:30:58;;;;;;;5.88;5.35;;;17.80;65.30;;;;;;1490712;39;20055;-59
2021/08/03 00:32:19;;;;;;;6.35;5.85;;;17.80;65.30;;;;;;1487483;39;20027;-60
2021/08/03 00:33:45;;;;;;;5.97;5.47;;;17.70;66.00;;;;;;1488583;39;20024;-58
2021/08/03 00:35:06;;;;;;;5.93;5.43;;;17.70;65.40;;;;;;1490648;39;20035;-58
2021/08/03 00:36:31;;;;;;;5.88;5.35;;;17.70;65.30;;;;;;1490298;39;20016;-59
2021/08/03 00:37:52;;;;;;;6.10;5.53;;;17.70;65.40;;;;;;1491565;39;20036;-58
2021/08/03 00:39:13;;;;;;;5.55;5.05;;;17.70;65.30;;;;;;1492726;39;20035;-60
2021/08/03 00:40:47;;;;;;;5.95;5.25;;;17.70;65.30;;;;;;1490954;39;20024;-59
2021/08/03 00:42:08;;;;;;;5.68;5.18;;;17.80;65.50;;;;;;1492054;39;20032;-59
2021/08/03 00:43:29;;;;;;;6.55;5.80;;;17.80;65.30;;;;;;1489897;39;20028;-59
2021/08/03 00:44:51;;;;;;;8.50;6.30;;;17.70;65.30;;;;;;1491117;39;20106;-60
2021/08/03 00:46:12;;;;;;;5.93;5.32;;;17.70;65.40;;;;;;1490941;39;20032;-58
2021/08/03 00:47:33;;;;;;;5.82;5.32;;;17.70;65.30;;;;;;1489538;39;20020;-59
2021/08/03 00:48:54;;;;;;;6.50;5.80;;;17.70;65.40;;;;;;1490260;39;20036;-59
2021/08/03 00:50:15;;;;;;;6.00;5.50;;;17.80;66.20;;;;;;1488027;39;20071;-59
2021/08/03 00:51:37;;;;;;;5.70;5.20;;;17.80;65.40;;;;;;1487847;39;20301;-60
2021/08/03 00:52:58;;;;;;;5.55;5.15;;;17.70;65.50;;;;;;1489861;39;20273;-59
2021/08/03 00:54:19;;;;;;;5.97;5.25;;;17.70;65.50;;;;;;1488068;40;20047;-59
2021/08/03 00:55:41;;;;;;;6.80;5.80;;;17.70;65.50;;;;;;1488284;39;20113;-58
2021/08/03 00:57:02;;;;;;;5.60;5.03;;;17.70;65.50;;;;;;1490942;39;20035;-58
2021/08/03 00:58:23;;;;;;;5.97;5.13;;;17.70;65.60;;;;;;1490862;39;20031;-59
2021/08/03 00:59:44;;;;;;;6.25;5.28;;;17.70;65.60;;;;;;1489080;39;20035;-59
2021/08/03 01:01:05;;;;;;;6.70;5.50;;;17.70;65.70;;;;;;1490206;39;20047;-59
2021/08/03 01:02:26;;;;;;;6.53;5.93;;;17.70;65.70;;;;;;1490022;39;20028;-59
2021/08/03 01:03:47;;;;;;;5.97;5.38;;;17.80;65.80;;;;;;1490199;39;20132;-58
2021/08/03 01:05:09;;;;;;;6.43;5.65;;;17.70;65.80;;;;;;1486513;40;20048;-59
2021/08/03 01:06:51;;;;;;;6.82;5.25;;;17.70;65.90;;;;;;1487522;39;20023;-59
2021/08/03 01:08:24;;;;;;;6.45;5.47;;;17.70;66.10;;;;;;1491815;39;20076;-58
2021/08/03 01:10:12;;;;;;;5.90;5.15;;;17.70;66.10;;;;;;1489706;39;20048;-58
2021/08/03 01:12:01;;;;;;;5.63;5.13;;;17.70;66.40;;;;;;1491589;39;20385;-59
2021/08/03 01:13:47;;;;;;;5.65;5.10;;;17.80;66.50;;;;;;1487602;39;20040;-60
2021/08/03 01:15:16;;;;;;;5.43;4.93;;;17.80;66.40;;;;;;1489883;39;20056;-60
2021/08/03 01:16:56;;;;;;;5.50;4.97;;;17.80;66.30;;;;;;1490176;39;20020;-60
2021/08/03 01:18:30;;;;;;;6.65;5.10;;;17.80;66.70;;;;;;1489937;39;20354;-60
2021/08/03 01:20:16;;;;;;;5.72;5.22;;;17.80;66.40;;;;;;1490816;39;20022;-59
2021/08/03 01:21:45;;;;;;;5.90;5.30;;;17.80;66.70;;;;;;1488109;39;20031;-60
2021/08/03 01:23:37;;;;;;;5.53;4.95;;;17.80;66.30;;;;;;1489987;39;20071;-60
2021/08/03 01:25:16;;;;;;;6.93;5.50;;;17.80;66.70;;;;;;1491099;39;20030;-60
2021/08/03 01:27:02;;;;;;;6.45;5.85;;;17.80;66.70;;;;;;1488602;39;20355;-60
2021/08/03 01:28:30;;;;;;;5.65;5.15;;;17.80;66.50;;;;;;1491075;39;20137;-60
2021/08/03 01:29:51;;;;;;;6.15;5.22;;;17.80;66.30;;;;;;1490238;39;20016;-60
2021/08/03 01:31:33;;;;;;;7.55;5.50;;;17.80;66.20;;;;;;1490186;39;20284;-60
2021/08/03 01:32:56;;;;;;;5.85;5.07;;;17.80;66.80;;;;;;1489500;39;20116;-59
2021/08/03 01:34:19;;;;;;;7.72;5.38;;;17.80;66.30;;;;;;1491871;39;20040;-60
2021/08/03 01:35:42;;;;;;;6.80;6.20;;;17.80;66.40;;;;;;1491533;39;20124;-59
2021/08/03 01:37:04;;;;;;;8.52;5.60;;;17.80;67.20;;;;;;1491675;39;20040;-59
2021/08/03 01:38:28;;;;;;;6.53;5.93;;;17.80;66.50;;;;;;1484086;40;20021;-59
2021/08/03 01:40:11;;;;;;;6.35;5.75;;;17.80;66.50;;;;;;1480014;40;20041;-58
2021/08/03 01:41:33;;;;;;;7.20;5.80;;;17.80;66.70;;;;;;1489864;39;20263;-59
2021/08/03 01:42:55;;;;;;;6.90;5.82;;;17.80;66.40;;;;;;1488755;39;20063;-59
2021/08/03 01:44:16;;;;;;;5.80;5.30;;;17.80;67.20;;;;;;1491858;39;20035;-59
2021/08/03 01:45:38;;;;;;;7.85;5.80;;;17.80;66.50;;;;;;1491304;39;20016;-59
2021/08/03 01:47:01;;;;;;;6.70;5.97;;;17.80;66.70;;;;;;1489785;39;20040;-59
2021/08/03 01:48:27;;;;;;;5.78;5.10;;;17.90;66.90;;;;;;1486162;39;20032;-59
2021/08/03 01:49:50;;;;;;;6.63;5.53;;;17.80;66.90;;;;;;1488584;39;20067;-59
2021/08/03 01:51:11;;;;;;;7.10;5.47;;;17.80;66.80;;;;;;1485639;40;20118;-59
2021/08/03 01:52:33;;;;;;;7.78;5.53;;;17.90;66.80;;;;;;1486047;39;20269;-59
2021/08/03 01:53:56;;;;;;;6.55;5.90;;;17.90;66.90;;;;;;1490487;39;20028;-59
2021/08/03 01:55:19;;;;;;;5.72;5.25;;;17.90;67.00;;;;;;1490554;39;20032;-59
2021/08/03 01:56:43;;;;;;;8.13;5.70;;;17.90;66.90;;;;;;1486177;39;20070;-59
2021/08/03 01:58:05;;;;;;;7.38;5.80;;;17.90;67.00;;;;;;1486131;39;20048;-58
2021/08/03 01:59:27;;;;;;;6.32;5.72;;;17.90;66.90;;;;;;1489901;39;20023;-59
2021/08/03 02:00:50;;;;;;;5.55;5.05;;;17.90;66.90;;;;;;1490372;39;20140;-59
2021/08/03 02:02:11;;;;;;;9.35;5.57;;;17.90;67.00;;;;;;1490767;39;20406;-60
2021/08/03 02:03:34;;;;;;;7.22;5.20;;;17.90;67.00;;;;;;1488387;39;20036;-59
2021/08/03 02:04:56;;;;;;;6.10;5.50;;;17.90;67.00;;;;;;1488725;39;20068;-59
2021/08/03 02:06:18;;;;;;;9.00;5.45;;;17.90;67.10;;;;;;1490245;39;20113;-59
2021/08/03 02:07:40;;;;;;;8.75;5.30;;;17.90;67.20;;;;;;1489982;39;20036;-59
2021/08/03 02:09:01;;;;;;;7.32;5.60;;;18.00;67.70;;;;;;1491637;39;20046;-59
2021/08/03 02:10:22;;;;;;;5.30;4.90;;;18.00;67.40;;;;;;1490485;39;20039;-59
2021/08/03 02:11:45;;;;;;;9.15;5.28;;;18.00;67.40;;;;;;1488025;39;20023;-59
2021/08/03 02:13:07;;;;;;;6.45;5.03;;;18.00;67.40;;;;;;1485989;40;20044;-59
2021/08/03 02:14:28;;;;;;;5.80;4.93;;;18.00;67.40;;;;;;1486054;40;20033;-59
2021/08/03 02:15:49;;;;;;;5.55;5.05;;;18.00;67.50;;;;;;1487600;39;20668;-59
2021/08/03 02:17:17;;;;;;;7.07;5.18;;;18.00;67.50;;;;;;1486416;39;20319;-59
2021/08/03 02:18:40;;;;;;;7.22;5.47;;;18.00;67.60;;;;;;1489553;39;20034;-59
2021/08/03 02:20:03;;;;;;;6.30;5.55;;;18.00;67.50;;;;;;1489180;39;20036;-59
2021/08/03 02:21:24;;;;;;;7.28;5.55;;;18.00;67.50;;;;;;1489561;39;20028;-59
2021/08/03 02:22:45;;;;;;;7.78;5.40;;;18.00;67.50;;;;;;1489667;39;20062;-59
2021/08/03 02:24:06;;;;;;;5.10;4.70;;;18.00;67.50;;;;;;1487936;39;20028;-59
2021/08/03 02:25:28;;;;;;;6.03;4.75;;;18.10;67.70;;;;;;1490976;39;20028;-59
2021/08/03 02:26:48;;;;;;;7.22;6.28;;;18.10;67.70;;;;;;1490550;39;20032;-59
2021/08/03 02:28:09;;;;;;;5.85;5.30;;;18.10;67.80;;;;;;1489836;39;20253;-59
2021/08/03 02:29:31;;;;;;;6.18;5.13;;;18.10;67.80;;;;;;1491489;39;20020;-59
2021/08/03 02:30:59;;;;;;;5.82;5.22;;;18.10;67.80;;;;;;1489701;39;20032;-59
2021/08/03 02:32:29;;;;;;;10.25;5.38;;;18.10;68.00;;;;;;1488667;39;20117;-59
2021/08/03 02:34:00;;;;;;;5.95;4.97;;;18.10;68.00;;;;;;1489404;39;20352;-59
2021/08/03 02:35:28;;;;;;;7.90;5.90;;;18.10;68.00;;;;;;1490305;39;20038;-59
2021/08/03 02:36:55;;;;;;;7.43;5.45;;;18.10;68.00;;;;;;1489959;39;20024;-59
2021/08/03 02:38:21;;;;;;;6.00;5.43;;;18.10;68.10;;;;;;1489610;39;20076;-58
2021/08/03 02:39:44;;;;;;;6.53;5.18;;;18.10;68.20;;;;;;1488357;39;20064;-59
2021/08/03 02:41:06;;;;;;;6.00;5.15;;;18.10;68.20;;;;;;1488990;39;20276;-59
2021/08/03 02:42:28;;;;;;;8.27;5.28;;;18.10;69.00;;;;;;1492498;39;20016;-59
2021/08/03 02:43:52;;;;;;;6.50;5.88;;;18.20;68.50;;;;;;1489919;39;20038;-59
2021/08/03 02:45:16;;;;;;;5.80;5.00;;;18.10;68.60;;;;;;1491922;39;20032;-59
2021/08/03 02:46:40;;;;;;;5.72;5.07;;;18.10;68.70;;;;;;1492232;39;20022;-59
2021/08/03 02:48:15;;;;;;;6.55;5.10;;;18.10;68.70;;;;;;1490743;39;20043;-58
2021/08/03 02:49:47;;;;;;;6.35;5.38;;;18.10;68.80;;;;;;1485410;40;20024;-59
2021/08/03 02:51:10;;;;;;;5.35;4.82;;;18.10;68.80;;;;;;1487148;40;20080;-59
2021/08/03 02:52:32;;;;;;;5.50;5.00;;;18.20;68.90;;;;;;1486856;39;20035;-59
2021/08/03 02:53:55;;;;;;;8.00;5.65;;;18.10;68.80;;;;;;1491154;39;20030;-59
2021/08/03 02:55:22;;;;;;;6.93;4.90;;;18.10;69.00;;;;;;1490379;39;20020;-59
2021/08/03 02:56:45;;;;;;;6.53;4.93;;;18.10;68.90;;;;;;1488684;39;20036;-59
2021/08/03 02:58:10;;;;;;;5.85;5.35;;;18.10;69.00;;;;;;1490727;39;20043;-59
2021/08/03 02:59:36;;;;;;;6.22;5.00;;;18.10;69.20;;;;;;1487579;39;20024;-59
2021/08/03 03:00:59;;;;;;;7.15;5.45;;;18.10;69.30;;;;;;1485859;39;20040;-59
2021/08/03 03:02:21;;;;;;;5.40;4.93;;;18.10;69.30;;;;;;1487981;39;20106;-59
2021/08/03 03:03:49;;;;;;;5.60;5.10;;;18.20;69.40;;;;;;1491002;39;20352;-59
2021/08/03 03:05:15;;;;;;;6.97;4.85;;;18.10;69.70;;;;;;1491226;39;20036;-59
2021/08/03 03:06:39;;;;;;;6.30;5.10;;;18.10;69.60;;;;;;1490897;39;20321;-59
2021/08/03 03:08:05;;;;;;;5.68;5.05;;;18.20;69.50;;;;;;1489681;39;20031;-59
2021/08/03 03:09:29;;;;;;;5.47;4.93;;;18.20;69.60;;;;;;1490700;39;20363;-59
2021/08/03 03:10:53;;;;;;;5.50;5.00;;;18.20;69.60;;;;;;1489313;39;20036;-59
2021/08/03 03:12:14;;;;;;;6.55;5.90;;;18.20;69.70;;;;;;1490446;39;20032;-59
2021/08/03 03:13:42;;;;;;;6.78;6.18;;;18.10;69.60;;;;;;1490576;39;20242;-59
2021/08/03 03:15:04;;;;;;;6.50;5.68;;;18.10;69.70;;;;;;1489545;39;20067;-59
2021/08/03 03:16:27;;;;;;;11.07;6.57;;;18.20;69.70;;;;;;1492265;39;20028;-59
2021/08/03 03:17:49;;;;;;;6.60;5.68;;;18.20;69.70;;;;;;1490634;39;20050;-59
2021/08/03 03:19:14;;;;;;;8.88;6.35;;;18.10;69.60;;;;;;1487864;40;20039;-59
2021/08/03 03:20:37;;;;;;;6.90;5.85;;;18.10;69.70;;;;;;1487541;40;20016;-59
2021/08/03 03:22:03;;;;;;;6.75;6.00;;;18.20;69.90;;;;;;1491226;39;20044;-58
2021/08/03 03:23:26;;;;;;;6.97;5.95;;;18.10;69.90;;;;;;1490711;39;20027;-58
2021/08/03 03:24:47;;;;;;;8.38;7.40;;;18.20;69.80;;;;;;1489413;39;20097;-59
2021/08/03 03:26:09;;;;;;;8.18;6.93;;;18.20;69.80;;;;;;1487149;40;20072;-59
2021/08/03 03:27:31;;;;;;;7.63;6.38;;;18.20;69.80;;;;;;1487723;39;20024;-59
2021/08/03 03:28:56;;;;;;;7.80;7.03;;;18.20;69.90;;;;;;1491105;39;20105;-59
2021/08/03 03:30:17;;;;;;;7.78;6.18;;;18.20;70.00;;;;;;1492882;39;20270;-59
2021/08/03 03:31:40;;;;;;;10.25;6.68;;;18.20;69.80;;;;;;1491603;39;20024;-59
2021/08/03 03:33:04;;;;;;;9.20;7.40;;;18.20;70.00;;;;;;1490968;39;20039;-59
2021/08/03 03:34:27;;;;;;;8.77;6.78;;;18.20;69.90;;;;;;1492027;39;20039;-59
2021/08/03 03:35:49;;;;;;;8.27;7.00;;;18.10;69.90;;;;;;1486485;39;20433;-59
2021/08/03 03:37:10;;;;;;;9.75;7.22;;;18.20;70.10;;;;;;1489618;39;20039;-59
2021/08/03 03:38:36;;;;;;;10.18;6.63;;;18.20;70.10;;;;;;1490646;39;20249;-59
2021/08/03 03:39:57;;;;;;;10.50;7.20;;;18.20;70.20;;;;;;1489264;39;20032;-59
2021/08/03 03:41:25;;;;;;;7.05;6.35;;;18.20;70.20;;;;;;1486128;39;20765;-59
2021/08/03 03:42:48;;;;;;;8.77;6.82;;;18.20;70.40;;;;;;1488624;39;20024;-59
2021/08/03 03:44:09;;;;;;;9.75;7.18;;;18.20;70.30;;;;;;1487169;40;20273;-59
2021/08/03 03:45:31;;;;;;;7.55;6.68;;;18.20;70.30;;;;;;1486136;40;20293;-58
2021/08/03 03:46:59;;;;;;;9.93;7.38;;;18.20;70.40;;;;;;1489689;39;20546;-58
2021/08/03 03:48:22;;;;;;;7.85;7.05;;;18.20;70.80;;;;;;1490313;39;20031;-58
2021/08/03 03:49:45;;;;;;;9.43;7.53;;;18.20;70.50;;;;;;1490851;39;20020;-58
2021/08/03 03:51:13;;;;;;;9.35;8.45;;;18.20;70.60;;;;;;1488767;39;20044;-59
2021/08/03 03:52:40;;;;;;;8.73;7.32;;;18.20;70.60;;;;;;1488342;39;20017;-58
2021/08/03 03:54:03;;;;;;;8.45;7.50;;;18.20;70.60;;;;;;1491116;39;20034;-59
2021/08/03 03:55:25;;;;;;;7.88;6.95;;;18.20;70.50;;;;;;1492670;39;20031;-58
2021/08/03 03:56:53;;;;;;;8.18;7.25;;;18.20;70.50;;;;;;1487031;39;20122;-58
2021/08/03 03:58:16;;;;;;;9.50;6.88;;;18.20;70.80;;;;;;1490384;39;20031;-58
2021/08/03 03:59:40;;;;;;;9.88;7.72;;;18.20;70.70;;;;;;1488538;39;20078;-58
2021/08/03 04:01:01;;;;;;;8.18;7.28;;;18.20;70.70;;;;;;1490469;39;20031;-58
2021/08/03 04:02:24;;;;;;;8.85;7.05;;;18.20;71.40;;;;;;1491451;39;20020;-59
2021/08/03 04:03:45;;;;;;;9.43;7.18;;;18.20;70.70;;;;;;1488716;39;20035;-58
2021/08/03 04:05:11;;;;;;;12.40;8.60;;;18.20;70.80;;;;;;1490767;39;20116;-59
2021/08/03 04:06:33;;;;;;;8.48;7.32;;;18.20;70.90;;;;;;1491174;39;20052;-59
2021/08/03 04:07:54;;;;;;;9.65;7.40;;;18.20;70.70;;;;;;1491739;39;20048;-58
2021/08/03 04:09:23;;;;;;;12.75;8.35;;;18.20;71.40;;;;;;1489398;39;20036;-58
2021/08/03 04:10:45;;;;;;;8.23;7.13;;;18.20;71.00;;;;;;1490224;39;20112;-58
2021/08/03 04:12:06;;;;;;;9.20;7.35;;;18.20;70.70;;;;;;1489620;39;20031;-59
2021/08/03 04:13:27;;;;;;;8.73;7.72;;;18.20;70.80;;;;;;1490637;39;20055;-58
2021/08/03 04:14:48;;;;;;;7.85;7.00;;;18.20;70.80;;;;;;1490205;39;20031;-58
2021/08/03 04:16:10;;;;;;;12.02;7.25;;;18.20;70.90;;;;;;1486225;40;20043;-58
2021/08/03 04:17:30;;;;;;;10.27;7.95;;;18.20;71.00;;;;;;1486337;39;20027;-58
2021/08/03 04:18:51;;;;;;;8.00;7.05;;;18.20;71.00;;;;;;1491451;39;20020;-58
2021/08/03 04:20:12;;;;;;;11.10;7.47;;;18.20;71.10;;;;;;1489815;39;20039;-59
2021/08/03 04:21:33;;;;;;;8.73;6.70;;;18.20;71.10;;;;;;1491411;39;20107;-58
2021/08/03 04:22:55;;;;;;;7.43;6.65;;;18.20;71.10;;;;;;1489587;39;20027;-58
2021/08/03 04:24:17;;;;;;;7.93;7.15;;;18.30;71.20;;;;;;1491485;39;20031;-58
2021/08/03 04:25:40;;;;;;;8.85;7.22;;;18.20;71.20;;;;;;1490111;39;20027;-58
2021/08/03 04:27:01;;;;;;;9.88;7.60;;;18.20;71.30;;;;;;1491640;39;20314;-58
2021/08/03 04:28:22;;;;;;;10.80;7.90;;;18.30;71.20;;;;;;1489497;39;20564;-59
2021/08/03 04:29:43;;;;;;;11.25;7.13;;;18.30;71.30;;;;;;1491065;39;20317;-58
2021/08/03 04:31:04;;;;;;;8.52;7.10;;;18.20;71.20;;;;;;1485278;39;20068;-58
2021/08/03 04:32:25;;;;;;;8.63;7.65;;;18.30;71.20;;;;;;1486549;40;20033;-59
2021/08/03 04:33:46;;;;;;;10.15;7.60;;;18.30;71.20;;;;;;1490716;39;20039;-58
2021/08/03 04:35:08;;;;;;;9.55;7.60;;;18.30;71.30;;;;;;1491375;39;20039;-58
2021/08/03 04:36:29;;;;;;;8.68;7.78;;;18.30;71.30;;;;;;1490197;39;20105;-58
2021/08/03 04:37:50;;;;;;;9.18;7.43;;;18.30;71.30;;;;;;1491045;39;20035;-58
2021/08/03 04:39:11;;;;;;;7.55;6.75;;;18.30;71.30;;;;;;1490693;39;20353;-58
2021/08/03 04:40:32;;;;;;;9.05;7.43;;;18.30;71.20;;;;;;1490932;39;20035;-58
2021/08/03 04:41:53;;;;;;;8.52;7.18;;;18.30;71.20;;;;;;1490520;39;20034;-58
2021/08/03 04:43:14;;;;;;;8.57;7.65;;;18.30;71.30;;;;;;1486971;40;20028;-59
2021/08/03 04:44:35;;;;;;;8.00;7.07;;;18.30;71.30;;;;;;1486945;39;20389;-59
2021/08/03 04:45:56;;;;;;;8.50;7.40;;;18.30;71.40;;;;;;1489743;39;20038;-58
2021/08/03 04:47:16;;;;;;;9.80;8.23;;;18.30;71.50;;;;;;1489686;39;20038;-58
2021/08/03 04:48:38;;;;;;;7.40;6.70;;;18.30;71.60;;;;;;1490334;39;20035;-58
2021/08/03 04:49:59;;;;;;;7.10;6.32;;;18.30;71.50;;;;;;1490958;39;20053;-59
2021/08/03 04:51:20;;;;;;;9.20;6.63;;;18.30;71.40;;;;;;1489996;39;20268;-58
2021/08/03 04:52:41;;;;;;;7.32;6.63;;;18.30;71.40;;;;;;1487160;39;20024;-59
2021/08/03 04:54:03;;;;;;;8.77;6.63;;;18.30;71.40;;;;;;1490160;39;20113;-59
2021/08/03 04:55:24;;;;;;;7.97;6.95;;;18.30;71.40;;;;;;1490777;39;20090;-58
2021/08/03 04:56:45;;;;;;;9.75;7.38;;;18.30;71.50;;;;;;1489380;39;20289;-58
2021/08/03 04:58:06;;;;;;;8.63;7.65;;;18.30;71.40;;;;;;1491474;39;20135;-58
2021/08/03 04:59:27;;;;;;;11.82;7.53;;;18.30;71.50;;;;;;1489343;39;20077;-58
2021/08/03 05:00:48;;;;;;;9.02;7.65;;;18.30;71.50;;;;;;1491752;39;20284;-58
2021/08/03 05:02:09;;;;;;;9.75;8.07;;;18.30;71.40;;;;;;1485813;40;20024;-59
2021/08/03 05:03:29;;;;;;;8.13;6.93;;;18.40;71.50;;;;;;1488041;39;20031;-58
2021/08/03 05:04:50;;;;;;;10.07;8.23;;;18.40;71.50;;;;;;1488299;39;20117;-58
2021/08/03 05:06:11;;;;;;;8.60;7.57;;;18.40;71.60;;;;;;1491020;39;20369;-59
2021/08/03 05:07:32;;;;;;;8.40;6.97;;;18.40;71.50;;;;;;1490973;39;20027;-59
2021/08/03 05:08:53;;;;;;;8.07;6.38;;;18.40;71.40;;;;;;1488942;39;20114;-58
2021/08/03 05:10:14;;;;;;;7.43;6.72;;;18.40;71.50;;;;;;1485939;40;20032;-61
2021/08/03 05:11:35;;;;;;;7.47;6.65;;;18.40;71.50;;;;;;1490274;39;20138;-58
2021/08/03 05:12:56;;;;;;;7.70;6.88;;;18.40;71.50;;;;;;1488356;39;20473;-58
2021/08/03 05:14:17;;;;;;;8.40;6.60;;;18.40;71.50;;;;;;1489025;39;20038;-59
2021/08/03 05:15:38;;;;;;;9.48;6.85;;;18.40;71.50;;;;;;1486405;39;20028;-58
2021/08/03 05:16:59;;;;;;;7.85;6.65;;;18.40;71.60;;;;;;1489136;39;20628;-59
2021/08/03 05:18:20;;;;;;;7.40;6.45;;;18.40;71.50;;;;;;1487987;39;20048;-58
2021/08/03 05:19:41;;;;;;;8.00;6.40;;;18.40;71.50;;;;;;1489218;39;20268;-58
2021/08/03 05:21:02;;;;;;;7.57;6.43;;;18.40;71.60;;;;;;1489004;39;20123;-59
2021/08/03 05:22:24;;;;;;;7.85;5.80;;;18.40;71.60;;;;;;1485346;39;20331;-58
2021/08/03 05:23:45;;;;;;;7.60;6.80;;;18.50;71.70;;;;;;1486663;39;20036;-59
2021/08/03 05:25:06;;;;;;;8.70;6.35;;;18.50;71.70;;;;;;1486188;39;20328;-58
2021/08/03 05:26:27;;;;;;;7.93;6.93;;;18.50;71.80;;;;;;1487464;39;20097;-59
2021/08/03 05:27:48;;;;;;;6.75;6.05;;;18.50;71.90;;;;;;1491218;39;20126;-59
2021/08/03 05:29:09;;;;;;;6.13;5.53;;;18.50;71.90;;;;;;1493376;39;20047;-58
2021/08/03 05:30:30;;;;;;;6.88;6.10;;;18.50;71.90;;;;;;1492329;39;20036;-59
2021/08/03 05:31:51;;;;;;;7.70;6.32;;;18.50;72.00;;;;;;1490375;39;20024;-58
2021/08/03 05:33:11;;;;;;;6.47;5.88;;;18.50;72.20;;;;;;1488579;39;20036;-58
2021/08/03 05:34:32;;;;;;;7.30;5.90;;;18.50;72.20;;;;;;1489866;39;20050;-59
2021/08/03 05:35:53;;;;;;;7.07;6.20;;;18.60;72.40;;;;;;1490494;39;20080;-58
2021/08/03 05:37:14;;;;;;;6.97;6.15;;;18.50;72.40;;;;;;1486921;39;20125;-58
2021/08/03 05:38:35;;;;;;;9.15;6.93;;;18.50;72.30;;;;;;1487656;39;20404;-58
2021/08/03 05:39:58;;;;;;;7.95;6.80;;;18.60;72.40;;;;;;1492480;39;20040;-59
2021/08/03 05:41:19;;;;;;;7.65;6.22;;;18.60;72.50;;;;;;1489424;39;20027;-59
2021/08/03 05:42:41;;;;;;;11.02;7.22;;;18.60;72.50;;;;;;1490971;39;20028;-58
2021/08/03 05:44:02;;;;;;;8.23;6.38;;;18.60;72.60;;;;;;1484464;39;20038;-58
2021/08/03 05:45:23;;;;;;;7.00;5.82;;;18.60;72.50;;;;;;1486747;39;20536;-59
2021/08/03 05:46:44;;;;;;;7.82;6.97;;;18.60;72.50;;;;;;1490574;39;20449;-58
2021/08/03 05:48:05;;;;;;;7.93;6.65;;;18.70;72.50;;;;;;1488531;39;20036;-60
2021/08/03 05:49:26;;;;;;;7.97;6.60;;;18.70;72.40;;;;;;1491210;39;20024;-60
2021/08/03 05:50:47;;;;;;;8.05;7.25;;;18.70;72.30;;;;;;1491411;39;20075;-60
2021/08/03 05:52:08;;;;;;;7.80;5.90;;;18.70;72.20;;;;;;1489999;39;20036;-60
2021/08/03 05:53:29;;;;;;;6.38;5.78;;;18.70;72.20;;;;;;1490033;39;20342;-60
2021/08/03 05:54:50;;;;;;;6.20;5.47;;;18.70;72.20;;;;;;1490245;39;20031;-60
2021/08/03 05:56:11;;;;;;;8.68;6.43;;;18.70;72.20;;;;;;1488913;39;20029;-61
2021/08/03 05:57:32;;;;;;;8.40;7.20;;;18.70;72.40;;;;;;1491489;39;20039;-60
2021/08/03 05:58:53;;;;;;;9.27;6.95;;;18.80;72.30;;;;;;1490222;39;20035;-60
2021/08/03 06:00:14;;;;;;;7.55;6.85;;;18.80;72.20;;;;;;1490077;39;20345;-60
2021/08/03 06:01:35;;;;;;;7.50;6.68;;;18.80;72.10;;;;;;1490092;39;20173;-60
2021/08/03 06:02:56;;;;;;;7.28;6.10;;;18.80;72.10;;;;;;1491179;39;20036;-60
2021/08/03 06:04:17;;;;;;;7.72;6.35;;;18.80;72.00;;;;;;1490713;39;20349;-58
2021/08/03 06:05:38;;;;;;;7.35;6.20;;;18.80;71.90;;;;;;1490843;39;20040;-57
2021/08/03 06:07:02;;;;;;;7.03;6.32;;;18.80;71.90;;;;;;1486625;39;20416;-60
2021/08/03 06:08:30;;;;;;;8.95;6.88;;;18.80;71.90;;;;;;1490417;39;20038;-60
2021/08/03 06:09:56;;;;;;;7.78;6.97;;;18.80;71.90;;;;;;1489242;39;20042;-60
2021/08/03 06:11:25;;;;;;;8.18;6.07;;;18.80;71.80;;;;;;1491035;39;20061;-61
2021/08/03 06:12:49;;;;;;;9.00;6.75;;;18.80;71.90;;;;;;1489978;39;20094;-58
2021/08/03 06:14:11;;;;;;;9.85;7.65;;;18.80;71.70;;;;;;1490598;39;20024;-61
2021/08/03 06:15:39;;;;;;;7.75;7.00;;;18.80;71.60;;;;;;1491639;39;20027;-60
2021/08/03 06:17:09;;;;;;;7.45;6.15;;;18.80;71.80;;;;;;1489165;39;20038;-59
2021/08/03 06:18:36;;;;;;;6.82;6.13;;;18.80;71.70;;;;;;1489425;39;20433;-59
2021/08/03 06:19:57;;;;;;;7.20;6.50;;;18.90;71.60;;;;;;1490732;39;20034;-60
2021/08/03 06:21:20;;;;;;;8.65;6.18;;;18.90;71.40;;;;;;1492498;39;20153;-60
2021/08/03 06:22:41;;;;;;;8.55;7.63;;;18.80;71.40;;;;;;1490976;39;20020;-60
2021/08/03 06:24:02;;;;;;;7.43;6.70;;;18.90;71.50;;;;;;1490943;39;20038;-60
2021/08/03 06:25:23;;;;;;;8.48;7.20;;;18.90;71.40;;;;;;1487827;39;20036;-60
2021/08/03 06:26:45;;;;;;;8.20;7.25;;;18.80;71.40;;;;;;1488059;39;20038;-59
2021/08/03 06:28:06;;;;;;;10.82;7.40;;;18.80;71.30;;;;;;1490026;39;20031;-60
2021/08/03 06:29:28;;;;;;;8.35;7.47;;;18.90;71.40;;;;;;1483858;39;20020;-59
2021/08/03 06:30:50;;;;;;;7.93;6.70;;;18.90;71.40;;;;;;1487778;39;20040;-59
2021/08/03 06:32:12;;;;;;;6.85;6.15;;;18.90;71.50;;;;;;1489077;39;20028;-60
2021/08/03 06:33:33;;;;;;;8.27;6.50;;;18.90;71.50;;;;;;1490607;39;20127;-60
2021/08/03 06:34:54;;;;;;;7.57;6.80;;;18.90;71.50;;;;;;1490412;39;20024;-60
2021/08/03 06:36:18;;;;;;;9.13;7.60;;;18.90;71.60;;;;;;1491157;39;20036;-59
2021/08/03 06:37:38;;;;;;;7.90;6.53;;;18.90;71.60;;;;;;1492104;39;20052;-60
2021/08/03 06:38:59;;;;;;;8.27;7.03;;;18.90;71.70;;;;;;1489701;39;20069;-59
2021/08/03 06:40:20;;;;;;;8.40;7.45;;;18.90;71.80;;;;;;1491309;39;20026;-59
2021/08/03 06:41:44;;;;;;;8.32;6.70;;;18.90;71.90;;;;;;1488319;39;20031;-60
2021/08/03 06:43:13;;;;;;;9.07;8.02;;;18.90;71.90;;;;;;1490192;39;20095;-60
2021/08/03 06:44:49;;;;;;;7.85;6.85;;;19.00;72.10;;;;;;1489052;39;20269;-60
2021/08/03 06:46:11;;;;;;;8.27;6.90;;;19.00;72.10;;;;;;1490374;39;20032;-60
2021/08/03 06:48:00;;;;;;;9.15;6.97;;;19.00;71.90;;;;;;1490303;39;20027;-59
2021/08/03 06:49:22;;;;;;;7.97;6.70;;;19.00;72.20;;;;;;1490368;39;20054;-60
2021/08/03 06:51:00;;;;;;;8.40;7.47;;;19.00;71.90;;;;;;1490639;39;20016;-60
2021/08/03 06:52:22;;;;;;;7.60;6.80;;;19.10;72.10;;;;;;1492078;39;20053;-60
2021/08/03 06:53:48;;;;;;;8.00;6.68;;;19.10;71.90;;;;;;1489837;39;20126;-60
2021/08/03 06:55:12;;;;;;;6.72;6.10;;;19.10;72.10;;;;;;1492066;39;20031;-59
2021/08/03 06:56:38;;;;;;;7.07;6.43;;;19.10;72.10;;;;;;1490613;39;20024;-59
2021/08/03 06:58:04;;;;;;;7.70;6.90;;;19.10;72.30;;;;;;1489355;39;20048;-59
2021/08/03 06:59:29;;;;;;;10.63;7.97;;;19.20;72.60;;;;;;1493738;39;20028;-59
2021/08/03 07:00:51;;;;;;;7.35;6.65;;;19.20;72.50;;;;;;1491273;39;20028;-60
2021/08/03 07:02:22;;;;;;;8.18;7.32;;;19.20;72.40;;;;;;1492148;39;20032;-60
2021/08/03 07:03:48;;;;;;;8.55;7.00;;;19.30;72.60;;;;;;1488803;39;20023;-60
2021/08/03 07:05:16;;;;;;;9.52;8.23;;;19.30;72.80;;;;;;1492073;39;20073;-59
2021/08/03 07:06:42;;;;;;;8.15;7.35;;;19.30;72.80;;;;;;1489053;39;20364;-59
2021/08/03 07:08:03;;;;;;;8.95;7.32;;;19.40;72.80;;;;;;1492181;39;20075;-60
2021/08/03 07:09:26;;;;;;;8.25;7.25;;;19.40;72.80;;;;;;1491559;39;20024;-60
2021/08/03 07:10:51;;;;;;;8.00;7.20;;;19.40;72.70;;;;;;1491450;39;20035;-59
2021/08/03 07:12:13;;;;;;;9.00;7.80;;;19.50;72.80;;;;;;1489682;39;20039;-60
2021/08/03 07:13:37;;;;;;;9.18;7.13;;;19.50;72.70;;;;;;1491967;39;20281;-59
2021/08/03 07:14:58;;;;;;;8.30;7.13;;;19.60;72.70;;;;;;1489915;39;20087;-59